Time;durP1;ratioP1;P1;durP2;ratioP2;P2;SDS_P1;SDS_P2;PMS_P1;PMS_P2;Temp;Humidity;BMP_temperature;BMP_pressure;BME280_temperature;BME280_humidity;BME280_pressure;Samples;Min_cycle;Max_cycle;Signal;HPM_P1;HPM_P2
2022/05/20 00:00:17;;;;;;;5.37;4.87;;;21.50;95.10;;;;;;1989718;28;20453;-70
2022/05/20 00:01:16;;;;;;;5.80;3.90;;;21.50;95.10;;;;;;1996850;28;20174;-72
2022/05/20 00:02:17;;;;;;;4.40;3.90;;;21.50;95.00;;;;;;1996940;28;20393;-72
2022/05/20 00:03:16;;;;;;;6.93;4.97;;;21.60;95.10;;;;;;1990087;28;20412;-72
2022/05/20 00:04:16;;;;;;;6.43;4.80;;;21.50;95.00;;;;;;1989136;28;20437;-72
2022/05/20 00:05:15;;;;;;;7.03;4.33;;;21.50;95.00;;;;;;1989238;28;20778;-72
2022/05/20 00:06:14;;;;;;;5.87;4.80;;;21.50;95.00;;;;;;1989921;28;20414;-72
2022/05/20 00:07:12;;;;;;;6.50;4.50;;;21.50;95.00;;;;;;1989175;28;20572;-72
2022/05/20 00:08:11;;;;;;;5.10;4.00;;;21.50;95.00;;;;;;1989416;28;20598;-72
2022/05/20 00:09:10;;;;;;;5.10;4.57;;;21.50;95.00;;;;;;1989978;28;20589;-71
2022/05/20 00:10:11;;;;;;;6.30;5.03;;;21.50;95.00;;;;;;1989577;28;20183;-72
2022/05/20 00:11:12;;;;;;;9.93;5.03;;;21.50;94.90;;;;;;1989486;28;20493;-72
2022/05/20 00:12:11;;;;;;;6.50;4.70;;;21.50;95.00;;;;;;2004745;28;20519;-72
2022/05/20 00:13:10;;;;;;;5.83;4.73;;;21.50;94.90;;;;;;2004786;28;20965;-71
2022/05/20 00:14:09;;;;;;;6.77;4.63;;;21.50;95.00;;;;;;1990244;28;20241;-71
2022/05/20 00:15:10;;;;;;;5.80;3.93;;;21.50;95.00;;;;;;1989291;28;20182;-72
2022/05/20 00:16:09;;;;;;;6.40;4.57;;;21.50;94.90;;;;;;1989329;28;20794;-72
2022/05/20 00:17:07;;;;;;;6.60;4.63;;;21.50;95.00;;;;;;1989626;28;20465;-71
2022/05/20 00:18:08;;;;;;;5.60;3.90;;;21.50;94.90;;;;;;1989100;28;20251;-71
2022/05/20 00:19:08;;;;;;;6.17;4.87;;;21.50;94.90;;;;;;1989131;28;20622;-72
2022/05/20 00:20:07;;;;;;;7.93;4.67;;;21.50;94.90;;;;;;1989691;28;20925;-71
2022/05/20 00:21:06;;;;;;;4.80;4.10;;;21.50;94.90;;;;;;1989792;28;20913;-72
2022/05/20 00:22:05;;;;;;;11.40;4.60;;;21.50;94.90;;;;;;1989784;28;20791;-74
2022/05/20 00:23:06;;;;;;;5.10;4.60;;;21.50;94.90;;;;;;1989892;28;20197;-74
2022/05/20 00:24:06;;;;;;;7.27;4.10;;;21.50;94.90;;;;;;1989750;28;20402;-73
2022/05/20 00:26:23;;;;;;;6.17;4.20;;;21.50;94.90;;;;;;1989622;28;20893;-71
2022/05/20 00:27:21;;;;;;;6.40;4.30;;;21.50;94.90;;;;;;1989796;28;20387;-72
2022/05/20 00:28:26;;;;;;;11.20;4.30;;;21.50;94.80;;;;;;1989905;28;20182;-72
2022/05/20 00:29:25;;;;;;;6.30;4.07;;;21.50;94.80;;;;;;1989810;28;20163;-72
2022/05/20 00:30:24;;;;;;;5.47;4.07;;;21.60;94.90;;;;;;1989430;28;20402;-71
2022/05/20 00:31:24;;;;;;;7.70;4.47;;;21.50;94.80;;;;;;1989768;28;20481;-72
2022/05/20 00:32:23;;;;;;;4.50;4.10;;;21.50;94.80;;;;;;1989765;28;20949;-72
2022/05/20 00:33:23;;;;;;;6.50;4.50;;;21.50;94.80;;;;;;1989891;28;20464;-72
2022/05/20 00:34:23;;;;;;;4.80;4.40;;;21.50;94.80;;;;;;1989858;28;20163;-71
2022/05/20 00:35:24;;;;;;;4.63;4.20;;;21.50;94.80;;;;;;1989735;28;20441;-72
2022/05/20 00:36:23;;;;;;;7.60;4.40;;;21.50;94.80;;;;;;1988870;28;20429;-71
2022/05/20 00:37:23;;;;;;;4.73;3.63;;;21.50;94.80;;;;;;1996730;28;20822;-71
2022/05/20 00:38:22;;;;;;;5.27;3.77;;;21.50;94.80;;;;;;2004346;28;20462;-72
2022/05/20 00:39:20;;;;;;;6.20;4.00;;;21.50;94.80;;;;;;1990329;28;20402;-71
2022/05/20 00:40:23;;;;;;;4.27;3.80;;;21.50;94.70;;;;;;1989877;28;20260;-71
2022/05/20 00:41:22;;;;;;;9.57;4.03;;;21.50;94.80;;;;;;1989967;28;20501;-71
2022/05/20 00:42:21;;;;;;;4.47;3.83;;;21.50;94.80;;;;;;1989612;28;20406;-73
2022/05/20 00:43:46;;;;;;;5.87;4.80;;;21.50;94.70;;;;;;1989573;28;20410;-71
2022/05/20 00:44:45;;;;;;;5.47;4.70;;;21.50;94.70;;;;;;1988185;28;20170;-71
2022/05/20 00:45:46;;;;;;;4.80;4.03;;;21.50;94.70;;;;;;1989617;28;20406;-72
2022/05/20 00:46:47;;;;;;;7.60;4.60;;;21.50;94.70;;;;;;1989548;28;20803;-72
2022/05/20 00:47:46;;;;;;;7.10;5.30;;;21.50;94.70;;;;;;1988838;28;20422;-71
2022/05/20 00:48:45;;;;;;;5.17;3.60;;;21.50;94.80;;;;;;1989213;28;20417;-72
2022/05/20 00:49:51;;;;;;;5.70;4.00;;;21.50;94.80;;;;;;1989403;28;20182;-71
2022/05/20 00:51:22;;;;;;;6.10;4.73;;;21.50;94.70;;;;;;1989124;28;20402;-72
2022/05/20 00:52:27;;;;;;;4.57;4.00;;;21.50;94.70;;;;;;1989327;28;20406;-71
2022/05/20 00:53:30;;;;;;;5.30;3.57;;;21.50;94.70;;;;;;1989571;28;20399;-71
2022/05/20 00:54:36;;;;;;;4.80;4.30;;;21.40;94.70;;;;;;1989684;28;20409;-71
2022/05/20 00:55:35;;;;;;;5.57;4.43;;;21.50;94.70;;;;;;1989668;28;20387;-72
2022/05/20 00:56:42;;;;;;;7.17;3.87;;;21.40;94.70;;;;;;1989465;28;20505;-73
2022/05/20 00:57:47;;;;;;;8.10;4.30;;;21.40;94.70;;;;;;1989354;28;20429;-73
2022/05/20 00:58:47;;;;;;;4.40;4.00;;;21.40;94.60;;;;;;1989267;28;20771;-72
2022/05/20 00:59:54;;;;;;;5.13;4.50;;;21.50;94.70;;;;;;1989542;28;20476;-72
2022/05/20 01:00:55;;;;;;;6.30;4.30;;;21.50;94.70;;;;;;1989609;28;20416;-72
2022/05/20 01:01:57;;;;;;;5.23;4.30;;;21.50;94.70;;;;;;1989578;28;20943;-72
2022/05/20 01:03:00;;;;;;;5.80;4.60;;;21.40;94.70;;;;;;1989491;28;20501;-72
2022/05/20 01:03:58;;;;;;;10.13;4.40;;;21.40;94.70;;;;;;1988935;28;20429;-72
2022/05/20 01:05:00;;;;;;;5.13;3.97;;;21.40;94.70;;;;;;1989071;28;20436;-72
2022/05/20 01:05:59;;;;;;;4.20;3.60;;;21.40;94.60;;;;;;1989328;28;20181;-71
2022/05/20 01:06:58;;;;;;;4.63;4.00;;;21.40;94.60;;;;;;1989426;28;20425;-71
2022/05/20 01:07:57;;;;;;;5.87;4.17;;;21.40;94.70;;;;;;1989307;28;20413;-71
2022/05/20 01:08:57;;;;;;;8.13;4.57;;;21.40;94.60;;;;;;1989433;28;20410;-71
2022/05/20 01:09:57;;;;;;;5.50;3.67;;;21.40;94.60;;;;;;1989307;28;20460;-72
2022/05/20 01:10:56;;;;;;;8.10;5.07;;;21.40;94.60;;;;;;1989373;28;20405;-72
2022/05/20 01:11:55;;;;;;;5.90;4.83;;;21.40;94.60;;;;;;1989401;28;20432;-72
2022/05/20 01:12:56;;;;;;;6.23;4.73;;;21.40;94.60;;;;;;1989352;28;20441;-72
2022/05/20 01:13:55;;;;;;;6.97;4.63;;;21.40;94.60;;;;;;1989417;28;20512;-72
2022/05/20 01:14:54;;;;;;;7.53;4.67;;;21.40;94.60;;;;;;1990031;28;20418;-72
2022/05/20 01:15:54;;;;;;;7.17;4.40;;;21.40;94.60;;;;;;1989510;28;20189;-72
2022/05/20 01:16:53;;;;;;;6.50;4.40;;;21.40;94.60;;;;;;1989511;28;20194;-72
2022/05/20 01:17:54;;;;;;;8.03;5.13;;;21.40;94.60;;;;;;1989616;28;20409;-70
2022/05/20 01:18:56;;;;;;;8.77;5.80;;;21.30;94.50;;;;;;1996171;28;20770;-72
2022/05/20 01:19:56;;;;;;;7.90;5.07;;;21.30;94.60;;;;;;1996278;28;20444;-72
2022/05/20 01:20:55;;;;;;;5.87;4.17;;;21.30;94.50;;;;;;1997045;28;20413;-72
2022/05/20 01:21:54;;;;;;;9.00;4.00;;;21.40;94.50;;;;;;1995844;28;20454;-71
2022/05/20 01:23:00;;;;;;;5.60;4.23;;;21.30;94.50;;;;;;1992766;28;20745;-71
2022/05/20 01:24:03;;;;;;;4.97;3.77;;;21.40;94.50;;;;;;1992635;28;20233;-74
2022/05/20 01:25:03;;;;;;;5.50;3.50;;;21.30;94.40;;;;;;1990989;28;20424;-72
2022/05/20 01:26:02;;;;;;;6.40;4.03;;;21.40;94.50;;;;;;1989608;28;20484;-72
2022/05/20 01:27:01;;;;;;;4.57;4.17;;;21.40;94.40;;;;;;1989682;28;20441;-72
2022/05/20 01:28:00;;;;;;;5.30;3.90;;;21.40;94.40;;;;;;1989552;28;20424;-72
2022/05/20 01:28:58;;;;;;;6.53;4.60;;;21.40;94.80;;;;;;1989355;28;20174;-72
2022/05/20 01:29:57;;;;;;;5.87;4.30;;;21.40;94.40;;;;;;1989546;28;20201;-72
2022/05/20 01:31:14;;;;;;;5.70;4.20;;;21.30;94.30;;;;;;1989219;28;20591;-72
2022/05/20 01:32:12;;;;;;;9.30;4.40;;;21.40;94.40;;;;;;1988804;28;20234;-73
2022/05/20 01:33:11;;;;;;;8.10;4.37;;;21.30;94.30;;;;;;1988714;28;20417;-72
2022/05/20 01:34:09;;;;;;;5.67;4.03;;;21.40;94.40;;;;;;1988740;28;20194;-72
2022/05/20 01:35:15;;;;;;;7.80;4.77;;;21.30;94.30;;;;;;1988636;28;20182;-72
2022/05/20 01:36:20;;;;;;;4.90;4.03;;;21.40;94.30;;;;;;1989388;28;20182;-71
2022/05/20 01:37:18;;;;;;;6.40;4.60;;;21.30;94.30;;;;;;1989394;28;20752;-71
2022/05/20 01:38:18;;;;;;;7.87;5.47;;;21.30;94.30;;;;;;1989339;28;20410;-71
2022/05/20 01:39:17;;;;;;;6.10;3.93;;;21.30;94.30;;;;;;1989299;28;20189;-71
2022/05/20 01:40:15;;;;;;;5.03;4.50;;;21.30;94.30;;;;;;1988515;28;21083;-71
2022/05/20 01:41:16;;;;;;;8.80;4.90;;;21.30;94.30;;;;;;1988794;28;20429;-71
2022/05/20 01:42:25;;;;;;;6.40;4.10;;;21.30;94.30;;;;;;1989468;28;20171;-71
2022/05/20 01:43:32;;;;;;;7.03;4.87;;;21.30;94.20;;;;;;1989485;28;20745;-72
2022/05/20 01:44:42;;;;;;;7.60;5.10;;;21.30;94.20;;;;;;1989074;28;20384;-72
2022/05/20 01:45:53;;;;;;;7.93;5.10;;;21.30;94.20;;;;;;1989224;28;20408;-71
2022/05/20 01:47:01;;;;;;;7.17;4.63;;;21.30;94.20;;;;;;1989234;28;20492;-72
2022/05/20 01:48:10;;;;;;;6.67;5.70;;;21.30;94.20;;;;;;1989240;28;20390;-71
2022/05/20 01:49:17;;;;;;;6.90;4.30;;;21.20;94.20;;;;;;1989081;28;20402;-72
2022/05/20 01:50:22;;;;;;;6.57;4.30;;;21.30;94.20;;;;;;2004012;28;20416;-71
2022/05/20 01:51:24;;;;;;;7.13;4.93;;;21.30;94.20;;;;;;2003635;28;20400;-71
2022/05/20 01:52:53;;;;;;;6.97;3.90;;;21.30;94.20;;;;;;1989183;28;20417;-71
2022/05/20 01:54:00;;;;;;;7.50;4.60;;;21.20;94.10;;;;;;1989211;28;20386;-71
2022/05/20 01:55:25;;;;;;;7.40;4.60;;;21.20;94.20;;;;;;1989125;28;20469;-71
2022/05/20 01:56:56;;;;;;;5.73;4.67;;;21.30;94.20;;;;;;1989318;28;20776;-71
2022/05/20 01:58:16;;;;;;;7.40;4.40;;;21.20;94.10;;;;;;1985002;28;20897;-70
2022/05/20 01:59:28;;;;;;;6.03;4.80;;;21.20;94.10;;;;;;1989074;28;20394;-71
2022/05/20 02:00:31;;;;;;;8.43;4.13;;;21.20;94.10;;;;;;1989154;28;20445;-71
2022/05/20 02:01:40;;;;;;;7.50;4.63;;;21.20;94.10;;;;;;1989123;28;20419;-71
2022/05/20 02:02:51;;;;;;;6.63;4.07;;;21.20;94.10;;;;;;2004190;28;20416;-71
2022/05/20 02:03:54;;;;;;;4.63;3.93;;;21.20;94.00;;;;;;2001934;28;20910;-71
2022/05/20 02:05:05;;;;;;;5.50;3.70;;;21.20;94.00;;;;;;1988694;28;20398;-71
2022/05/20 02:06:06;;;;;;;7.50;3.80;;;21.20;94.00;;;;;;1988511;28;20394;-71
2022/05/20 02:07:08;;;;;;;5.20;3.93;;;21.20;94.00;;;;;;1989021;28;20653;-71
2022/05/20 02:08:17;;;;;;;5.30;3.50;;;21.20;94.00;;;;;;1988987;28;20790;-71
2022/05/20 02:09:22;;;;;;;6.50;3.90;;;21.20;94.00;;;;;;1987817;28;20418;-71
2022/05/20 02:10:29;;;;;;;5.57;4.40;;;21.20;94.00;;;;;;1988663;28;20398;-71
2022/05/20 02:11:37;;;;;;;6.17;3.70;;;21.20;94.00;;;;;;1989186;28;20383;-71
2022/05/20 02:12:41;;;;;;;5.80;3.70;;;21.20;94.00;;;;;;1989069;28;20394;-74
2022/05/20 02:13:44;;;;;;;6.47;4.20;;;21.20;93.90;;;;;;1989087;28;20379;-71
2022/05/20 02:14:51;;;;;;;12.10;4.80;;;21.20;93.90;;;;;;1989054;28;20446;-74
2022/05/20 02:15:54;;;;;;;6.13;4.10;;;21.20;93.90;;;;;;1989041;28;20405;-73
2022/05/20 02:17:02;;;;;;;4.63;3.80;;;21.20;93.90;;;;;;1988972;28;20528;-72
2022/05/20 02:18:05;;;;;;;4.63;3.60;;;21.20;93.80;;;;;;1989049;28;20417;-73
2022/05/20 02:19:12;;;;;;;5.37;3.73;;;21.20;93.80;;;;;;1988990;28;20929;-73
2022/05/20 02:20:31;;;;;;;6.60;3.27;;;21.20;93.90;;;;;;1988959;28;20489;-72
2022/05/20 02:21:32;;;;;;;5.13;3.67;;;21.20;93.90;;;;;;1988749;28;20712;-72
2022/05/20 02:22:36;;;;;;;4.83;3.50;;;21.20;93.90;;;;;;1988955;28;20897;-72
2022/05/20 02:23:39;;;;;;;3.90;3.50;;;21.20;93.90;;;;;;1989346;28;20382;-73
2022/05/20 02:24:39;;;;;;;3.80;3.03;;;21.20;93.80;;;;;;1989075;28;20393;-72
2022/05/20 02:25:44;;;;;;;6.83;3.60;;;21.20;93.80;;;;;;1988255;28;20418;-74
2022/05/20 02:26:47;;;;;;;8.17;3.97;;;21.20;93.80;;;;;;1988289;28;20430;-73
2022/05/20 02:27:51;;;;;;;7.00;3.50;;;21.20;93.80;;;;;;1989084;28;20538;-71
2022/05/20 02:28:57;;;;;;;3.60;3.00;;;21.20;93.80;;;;;;1989065;28;20619;-72
2022/05/20 02:30:02;;;;;;;3.60;3.20;;;21.20;93.80;;;;;;1988404;28;20394;-71
2022/05/20 02:31:04;;;;;;;4.17;3.17;;;21.20;93.80;;;;;;1988515;28;20382;-71
2022/05/20 02:32:22;;;;;;;3.43;2.90;;;21.20;94.10;;;;;;1988987;28;20901;-72
2022/05/20 02:33:24;;;;;;;5.00;3.43;;;21.20;93.80;;;;;;1988778;28;20406;-72
2022/05/20 02:34:23;;;;;;;4.53;3.23;;;21.20;93.70;;;;;;1988746;28;20429;-72
2022/05/20 02:35:21;;;;;;;5.33;3.40;;;21.20;93.70;;;;;;1988932;28;20433;-72
2022/05/20 02:36:28;;;;;;;4.07;2.93;;;21.10;93.70;;;;;;1988985;28;20175;-72
2022/05/20 02:37:35;;;;;;;12.43;3.20;;;21.10;93.60;;;;;;1989041;28;20238;-72
2022/05/20 02:38:35;;;;;;;6.03;3.67;;;21.10;94.00;;;;;;1989072;28;20398;-72
2022/05/20 02:39:34;;;;;;;3.90;3.10;;;21.20;93.70;;;;;;1988871;28;20414;-71
2022/05/20 02:40:33;;;;;;;3.40;3.10;;;21.10;93.60;;;;;;1988547;28;20446;-72
2022/05/20 02:41:31;;;;;;;2.67;2.47;;;21.20;93.70;;;;;;1988272;28;20177;-72
2022/05/20 02:42:30;;;;;;;4.17;3.00;;;21.20;93.70;;;;;;1988886;28;20182;-72
2022/05/20 02:43:28;;;;;;;6.57;3.30;;;21.20;93.70;;;;;;1988876;28;20194;-71
2022/05/20 02:44:27;;;;;;;3.37;3.00;;;21.20;93.70;;;;;;1988956;28;20178;-71
2022/05/20 02:45:25;;;;;;;4.67;2.97;;;21.20;93.70;;;;;;1988883;28;20598;-71
2022/05/20 02:46:24;;;;;;;4.20;2.97;;;21.20;93.70;;;;;;1988773;28;20250;-72
2022/05/20 02:47:23;;;;;;;2.87;2.63;;;21.20;93.60;;;;;;1988924;28;20170;-72
2022/05/20 02:48:23;;;;;;;7.10;3.17;;;21.20;93.60;;;;;;1988708;28;20404;-72
2022/05/20 02:49:21;;;;;;;3.83;3.07;;;21.10;93.60;;;;;;1988943;28;20260;-72
2022/05/20 02:50:20;;;;;;;4.40;2.80;;;21.10;93.60;;;;;;1988944;28;20409;-72
2022/05/20 02:51:18;;;;;;;3.10;2.77;;;21.20;93.60;;;;;;1988895;28;20185;-72
2022/05/20 02:52:17;;;;;;;5.77;3.13;;;21.20;93.60;;;;;;1989281;28;20202;-72
2022/05/20 02:53:17;;;;;;;5.40;2.83;;;21.10;93.50;;;;;;1988808;28;20333;-71
2022/05/20 02:54:15;;;;;;;3.40;2.80;;;21.10;93.50;;;;;;1988988;28;20179;-71
2022/05/20 02:55:16;;;;;;;4.50;2.77;;;21.10;93.50;;;;;;1989044;28;20432;-73
2022/05/20 02:56:14;;;;;;;3.23;2.47;;;21.10;93.50;;;;;;1988975;28;20174;-72
2022/05/20 02:57:14;;;;;;;2.80;2.50;;;21.10;93.50;;;;;;1988877;28;20446;-72
2022/05/20 03:04:09;;;;;;;5.37;3.20;;;21.10;93.50;;;;;;1988660;28;20352;-72
2022/05/20 03:04:40;;;;;;;3.47;2.83;;;21.10;93.50;;;;;;1989710;28;20367;-72
2022/05/20 03:05:39;;;;;;;3.40;2.40;;;21.10;93.50;;;;;;1994330;28;20393;-72
2022/05/20 03:06:44;;;;;;;3.77;2.60;;;21.10;93.50;;;;;;1997766;28;20414;-71
2022/05/20 03:07:43;;;;;;;4.30;2.37;;;21.10;93.40;;;;;;1997859;28;20425;-73
2022/05/20 03:08:42;;;;;;;3.30;2.47;;;21.10;93.50;;;;;;1997384;28;20465;-72
2022/05/20 03:09:40;;;;;;;3.67;2.70;;;21.10;93.40;;;;;;1990275;28;20550;-72
2022/05/20 03:10:39;;;;;;;3.07;2.70;;;21.10;93.40;;;;;;1988907;28;20410;-72
2022/05/20 03:11:39;;;;;;;5.23;2.60;;;21.10;93.40;;;;;;1989107;28;20659;-71
2022/05/20 03:12:38;;;;;;;3.53;2.90;;;21.10;93.40;;;;;;1988833;28;20602;-72
2022/05/20 03:13:37;;;;;;;3.97;3.00;;;21.10;93.40;;;;;;1988955;28;20658;-72
2022/05/20 03:14:35;;;;;;;2.90;2.50;;;21.00;93.30;;;;;;1988865;28;20410;-72
2022/05/20 03:15:39;;;;;;;5.97;2.73;;;21.10;93.40;;;;;;1988987;28;20175;-71
2022/05/20 03:16:38;;;;;;;3.43;2.30;;;21.10;93.30;;;;;;1996096;28;20665;-72
2022/05/20 03:17:37;;;;;;;5.57;2.33;;;21.00;93.30;;;;;;1995963;28;20432;-72
2022/05/20 03:18:35;;;;;;;11.93;3.30;;;21.10;93.40;;;;;;2003881;28;20466;-73
2022/05/20 03:19:36;;;;;;;3.27;2.70;;;21.00;93.30;;;;;;2003957;28;20265;-73
2022/05/20 03:20:35;;;;;;;3.63;2.37;;;21.10;93.30;;;;;;1989762;28;20178;-72
2022/05/20 03:21:35;;;;;;;3.83;2.50;;;21.00;93.30;;;;;;1990324;28;20488;-72
2022/05/20 03:22:34;;;;;;;3.97;2.97;;;21.10;93.30;;;;;;1989763;28;20163;-72
2022/05/20 03:23:33;;;;;;;3.50;2.23;;;21.00;93.30;;;;;;1989988;28;20413;-71
2022/05/20 03:24:33;;;;;;;5.33;2.50;;;21.00;93.20;;;;;;1989973;28;20409;-72
2022/05/20 03:25:31;;;;;;;3.00;2.20;;;21.00;93.20;;;;;;1990293;28;20171;-72
2022/05/20 03:26:31;;;;;;;2.33;2.13;;;21.00;93.20;;;;;;1990146;28;20406;-72
2022/05/20 03:27:30;;;;;;;3.67;2.60;;;21.00;93.20;;;;;;1990237;28;20174;-72
2022/05/20 03:28:29;;;;;;;3.20;2.20;;;21.00;93.30;;;;;;1990243;28;20897;-72
2022/05/20 03:29:29;;;;;;;3.40;2.50;;;21.00;93.20;;;;;;1989652;28;20434;-72
2022/05/20 03:30:29;;;;;;;3.30;2.63;;;21.00;93.20;;;;;;1981939;29;20422;-71
2022/05/20 03:31:31;;;;;;;5.17;2.47;;;21.00;93.20;;;;;;1989606;28;20457;-71
2022/05/20 03:32:30;;;;;;;2.20;2.00;;;21.00;93.20;;;;;;1990278;28;20402;-72
2022/05/20 03:33:28;;;;;;;2.90;2.60;;;21.00;93.20;;;;;;1990161;28;20416;-71
2022/05/20 03:34:27;;;;;;;3.80;2.37;;;21.00;93.20;;;;;;1990183;28;20189;-71
2022/05/20 03:35:26;;;;;;;4.00;2.00;;;21.00;93.20;;;;;;1990223;28;20182;-71
2022/05/20 03:36:25;;;;;;;3.73;2.90;;;21.00;93.10;;;;;;1990116;28;20240;-71
2022/05/20 03:37:25;;;;;;;3.77;2.80;;;21.10;93.20;;;;;;1989577;28;20445;-71
2022/05/20 03:38:23;;;;;;;1.73;1.63;;;21.00;93.10;;;;;;1989629;28;20182;-71
2022/05/20 03:39:24;;;;;;;2.30;2.10;;;21.00;93.10;;;;;;1990119;28;20402;-71
2022/05/20 03:40:22;;;;;;;2.43;2.13;;;21.00;93.10;;;;;;1990070;28;20206;-71
2022/05/20 03:41:21;;;;;;;4.70;2.17;;;21.00;93.20;;;;;;1990116;28;20489;-71
2022/05/20 03:42:19;;;;;;;3.20;2.30;;;21.00;93.10;;;;;;1990207;28;20202;-72
2022/05/20 03:43:18;;;;;;;3.97;1.90;;;21.00;93.10;;;;;;1990149;28;20178;-71
2022/05/20 03:44:17;;;;;;;5.13;2.37;;;21.00;93.10;;;;;;1990265;28;20199;-71
2022/05/20 03:45:15;;;;;;;4.77;2.40;;;21.00;93.10;;;;;;1990036;28;20534;-71
2022/05/20 03:46:15;;;;;;;3.50;2.03;;;21.00;93.00;;;;;;1990027;28;20421;-71
2022/05/20 03:47:14;;;;;;;4.60;2.43;;;21.00;93.10;;;;;;1990222;28;20540;-71
2022/05/20 03:48:13;;;;;;;3.40;2.53;;;21.00;93.10;;;;;;1989426;28;20468;-71
2022/05/20 03:49:13;;;;;;;3.63;2.33;;;20.90;93.00;;;;;;1989525;28;20170;-71
2022/05/20 03:50:11;;;;;;;3.50;2.07;;;21.00;93.10;;;;;;1989177;28;20413;-71
2022/05/20 03:51:12;;;;;;;4.20;2.23;;;21.00;93.10;;;;;;1989482;28;20437;-71
2022/05/20 03:52:11;;;;;;;4.63;2.23;;;21.00;93.10;;;;;;1990329;28;20182;-71
2022/05/20 03:53:09;;;;;;;3.40;2.13;;;21.00;93.10;;;;;;1990344;28;20405;-73
2022/05/20 03:54:08;;;;;;;8.90;2.80;;;21.00;93.00;;;;;;1990226;28;20413;-72
2022/05/20 03:55:08;;;;;;;1.90;1.70;;;21.00;93.10;;;;;;1990378;28;20174;-72
2022/05/20 03:56:07;;;;;;;2.83;2.20;;;21.00;93.00;;;;;;1990240;28;20171;-72
2022/05/20 03:57:06;;;;;;;5.03;2.03;;;21.00;93.00;;;;;;1989969;28;20445;-72
2022/05/20 03:58:07;;;;;;;2.17;1.90;;;21.00;93.00;;;;;;1989989;28;20418;-71
2022/05/20 03:59:10;;;;;;;4.60;2.43;;;21.00;93.00;;;;;;1990044;28;20897;-72
2022/05/20 04:00:09;;;;;;;5.43;2.53;;;21.00;93.00;;;;;;1990125;28;20481;-72
2022/05/20 04:02:29;;;;;;;2.47;2.20;;;21.00;93.00;;;;;;1989440;28;20482;-71
2022/05/20 04:03:28;;;;;;;2.83;1.97;;;21.00;93.00;;;;;;1989594;28;20398;-72
2022/05/20 04:04:27;;;;;;;3.33;2.13;;;21.00;93.00;;;;;;1990299;28;20406;-71
2022/05/20 04:05:25;;;;;;;2.97;1.90;;;20.90;92.90;;;;;;1991058;28;20432;-72
2022/05/20 04:06:24;;;;;;;2.63;1.93;;;21.00;93.30;;;;;;1990309;28;20175;-72
2022/05/20 04:07:26;;;;;;;5.40;2.60;;;21.00;92.90;;;;;;1990923;28;20174;-71
2022/05/20 04:08:24;;;;;;;5.10;2.30;;;20.90;92.90;;;;;;1992643;28;20194;-72
2022/05/20 04:09:23;;;;;;;2.67;1.97;;;20.90;92.90;;;;;;1996760;28;20479;-73
2022/05/20 04:10:24;;;;;;;2.40;2.20;;;20.90;92.90;;;;;;1998083;28;20170;-73
2022/05/20 04:11:24;;;;;;;3.30;2.27;;;21.00;92.90;;;;;;1998723;28;20159;-72
2022/05/20 04:12:27;;;;;;;6.10;2.40;;;21.00;92.90;;;;;;1985520;29;20471;-71
2022/05/20 04:13:27;;;;;;;2.83;2.27;;;21.00;92.90;;;;;;1983239;28;20798;-71
2022/05/20 04:14:27;;;;;;;2.17;1.90;;;21.00;92.90;;;;;;1990070;28;20437;-72
2022/05/20 04:15:27;;;;;;;2.73;2.00;;;21.00;92.90;;;;;;1989690;28;20463;-71
2022/05/20 04:16:26;;;;;;;2.80;1.83;;;20.90;92.80;;;;;;1990143;28;20429;-72
2022/05/20 04:17:25;;;;;;;2.83;1.90;;;20.90;92.80;;;;;;1990441;28;20938;-71
2022/05/20 04:18:23;;;;;;;2.63;2.27;;;20.90;92.80;;;;;;1990343;28;20193;-72
2022/05/20 04:19:23;;;;;;;4.30;1.93;;;20.90;92.80;;;;;;1990264;28;20436;-71
2022/05/20 04:20:22;;;;;;;1.97;1.73;;;21.00;92.90;;;;;;1981669;29;20214;-72
2022/05/20 04:21:20;;;;;;;4.40;1.77;;;20.90;92.80;;;;;;1981363;29;20418;-72
2022/05/20 04:22:26;;;;;;;3.20;2.10;;;20.90;92.80;;;;;;1989320;28;20178;-72
2022/05/20 04:23:25;;;;;;;2.20;1.93;;;20.90;92.80;;;;;;1990248;28;20234;-71
2022/05/20 04:24:24;;;;;;;2.93;2.27;;;20.90;92.80;;;;;;1990282;28;20487;-72
2022/05/20 04:25:22;;;;;;;2.43;2.20;;;20.90;92.80;;;;;;1990260;28;20170;-72
2022/05/20 04:26:21;;;;;;;1.87;1.63;;;20.90;92.80;;;;;;1989847;28;20434;-72
2022/05/20 04:27:21;;;;;;;3.47;2.20;;;20.90;92.80;;;;;;1990259;28;20628;-72
2022/05/20 04:28:19;;;;;;;6.00;2.43;;;20.90;92.80;;;;;;1990098;28;20220;-71
2022/05/20 04:29:18;;;;;;;3.37;1.80;;;20.90;92.80;;;;;;1989940;28;20796;-71
2022/05/20 04:30:17;;;;;;;2.60;2.17;;;21.00;92.90;;;;;;1989892;28;20175;-70
2022/05/20 04:31:16;;;;;;;3.30;1.80;;;20.90;92.80;;;;;;1990101;28;20735;-71
2022/05/20 04:32:14;;;;;;;2.33;2.07;;;20.90;92.80;;;;;;1989519;28;20704;-71
2022/05/20 04:33:13;;;;;;;2.10;1.90;;;20.90;92.80;;;;;;1989934;28;20225;-71
2022/05/20 04:34:12;;;;;;;2.80;2.30;;;20.90;92.70;;;;;;1990131;28;20174;-71
2022/05/20 04:35:11;;;;;;;5.90;2.23;;;20.90;92.80;;;;;;1990143;28;20183;-73
2022/05/20 04:36:10;;;;;;;1.83;1.60;;;20.90;92.80;;;;;;1989833;28;20926;-71
2022/05/20 04:37:11;;;;;;;2.00;1.80;;;21.00;92.80;;;;;;1990099;28;20204;-73
2022/05/20 04:38:09;;;;;;;6.50;2.60;;;20.90;92.70;;;;;;1990021;28;20488;-71
2022/05/20 04:39:07;;;;;;;5.33;2.10;;;20.90;92.70;;;;;;1989893;28;20905;-72
2022/05/20 04:40:07;;;;;;;4.07;2.20;;;20.90;92.70;;;;;;1989706;28;20237;-71
2022/05/20 04:47:34;;;;;;;6.37;2.90;;;20.90;92.70;;;;;;1989808;28;20383;-72
2022/05/20 04:48:33;;;;;;;3.90;1.90;;;20.90;92.70;;;;;;1989645;28;20399;-72
2022/05/20 04:49:33;;;;;;;6.80;1.93;;;20.90;92.70;;;;;;1989772;28;20441;-73
2022/05/20 04:50:31;;;;;;;8.70;2.20;;;20.90;92.70;;;;;;1989678;28;20178;-71
2022/05/20 04:51:32;;;;;;;3.63;1.90;;;20.90;92.70;;;;;;1989627;28;20410;-72
2022/05/20 04:52:31;;;;;;;3.43;1.90;;;20.90;92.70;;;;;;1989721;28;20178;-72
2022/05/20 04:54:50;;;;;;;5.10;2.00;;;20.90;92.60;;;;;;1989626;28;20254;-71
2022/05/20 04:55:49;;;;;;;2.80;1.87;;;20.90;92.90;;;;;;1989726;28;20473;-71
2022/05/20 04:56:49;;;;;;;1.83;1.70;;;20.90;92.70;;;;;;1989583;28;20437;-71
2022/05/20 04:57:51;;;;;;;2.60;2.00;;;21.00;92.70;;;;;;1989658;28;20534;-71
2022/05/20 04:58:51;;;;;;;2.23;1.67;;;20.90;92.60;;;;;;1981548;29;20422;-71
2022/05/20 04:59:51;;;;;;;2.20;1.50;;;20.90;92.60;;;;;;1981151;29;20902;-71
2022/05/20 05:00:49;;;;;;;2.60;1.90;;;20.90;92.60;;;;;;1989798;28;20410;-71
2022/05/20 05:01:51;;;;;;;3.20;1.80;;;20.90;92.60;;;;;;1989107;28;20476;-71
2022/05/20 05:02:51;;;;;;;2.43;1.80;;;20.90;92.60;;;;;;1989175;28;20213;-72
2022/05/20 05:03:51;;;;;;;7.57;2.17;;;20.90;92.60;;;;;;1988929;28;20406;-72
2022/05/20 05:04:51;;;;;;;6.73;2.07;;;20.90;92.60;;;;;;1988872;28;20418;-71
2022/05/20 05:05:50;;;;;;;2.67;1.93;;;20.90;92.50;;;;;;1989749;28;20865;-71
2022/05/20 05:06:50;;;;;;;1.90;1.70;;;20.90;92.60;;;;;;1989578;28;20484;-71
2022/05/20 05:07:50;;;;;;;4.10;2.43;;;20.90;92.50;;;;;;1989680;28;20181;-71
2022/05/20 05:08:50;;;;;;;2.70;2.10;;;20.90;92.60;;;;;;1989244;28;20437;-71
2022/05/20 05:09:49;;;;;;;4.17;1.70;;;20.90;92.60;;;;;;1989769;28;20403;-73
2022/05/20 05:10:49;;;;;;;4.00;2.17;;;20.90;92.80;;;;;;1989065;28;20834;-72
2022/05/20 05:11:47;;;;;;;2.80;1.90;;;20.90;92.50;;;;;;2004713;28;20460;-72
2022/05/20 05:12:46;;;;;;;3.40;2.00;;;20.90;92.50;;;;;;2004548;28;20737;-72
2022/05/20 05:13:44;;;;;;;2.90;2.53;;;21.00;92.60;;;;;;1990599;28;20622;-72
2022/05/20 05:14:51;;;;;;;2.80;2.07;;;20.90;92.50;;;;;;1989835;28;20234;-72
2022/05/20 05:15:51;;;;;;;5.73;1.97;;;20.90;92.50;;;;;;1988904;28;20253;-72
2022/05/20 05:16:51;;;;;;;2.73;2.00;;;20.90;92.50;;;;;;1981257;29;20450;-71
2022/05/20 05:19:10;;;;;;;2.33;1.97;;;20.90;92.50;;;;;;1989569;28;20387;-71
2022/05/20 05:20:20;;;;;;;3.33;2.40;;;20.90;92.50;;;;;;1989588;28;20858;-71
2022/05/20 05:21:18;;;;;;;11.70;2.20;;;20.90;92.50;;;;;;1989209;28;20386;-72
2022/05/20 05:22:17;;;;;;;3.40;1.90;;;20.90;92.50;;;;;;1988871;28;20453;-71
2022/05/20 05:23:16;;;;;;;2.30;2.10;;;20.90;92.40;;;;;;1988935;28;20182;-73
2022/05/20 05:24:15;;;;;;;2.17;1.93;;;20.90;92.50;;;;;;1988616;28;20603;-72
2022/05/20 05:25:14;;;;;;;4.17;1.50;;;20.90;92.40;;;;;;1988862;28;20817;-71
2022/05/20 05:26:13;;;;;;;4.67;1.90;;;20.90;92.40;;;;;;1988604;28;20617;-72
2022/05/20 05:27:13;;;;;;;4.13;1.90;;;20.90;92.40;;;;;;1989172;28;20525;-73
2022/05/20 05:28:12;;;;;;;5.27;2.17;;;20.90;92.40;;;;;;1989545;28;20828;-71
2022/05/20 05:29:12;;;;;;;2.90;1.77;;;20.90;92.40;;;;;;1988909;28;20421;-71
2022/05/20 05:30:12;;;;;;;2.60;1.60;;;20.90;92.40;;;;;;1988799;28;20460;-73
2022/05/20 05:31:10;;;;;;;5.77;2.03;;;20.90;92.40;;;;;;1989565;28;20776;-71
2022/05/20 05:32:09;;;;;;;4.33;2.00;;;21.00;92.40;;;;;;1989518;28;20420;-72
2022/05/20 05:33:11;;;;;;;3.60;2.10;;;21.00;92.40;;;;;;1989363;28;20178;-71
2022/05/20 05:34:10;;;;;;;3.63;1.80;;;20.90;92.40;;;;;;1989462;28;20248;-71
2022/05/20 05:35:14;;;;;;;7.20;1.97;;;21.00;92.40;;;;;;1989990;28;20476;-72